Aviation Digital Data Service (ADDS)

Output produced by METARs form (1548 UTC 20 March 2019)
found at http://www.aviationweather.gov/metar/data/
 
METAR text: RPVM 201500Z 07010KT 9999 FEW020 BKN100 28/23 Q1014 RMK A2994
Conditions at: RPVM (MACTAN-CEBU , PH) observed 1500 UTC 20 March 2019
Temperature: 28.0°C (82°F)
Dewpoint: 23.0°C (73°F) [RH = 74%]
Pressure (altimeter): 29.94 inches Hg (1014.0 mb)
Winds: from the ENE (70 degrees) at 12 MPH (10 knots; 5.1 m/s)
Visibility: 6 or more miles (10+ km)
Ceiling: 10000 feet AGL
Clouds: few clouds at 2000 feet AGL
broken clouds at 10000 feet AGL
Weather: no significant weather observed at this time

METAR text: RPVM 201400Z 06009KT 9999 FEW020 27/22 Q1013 RMK A2991
Conditions at: RPVM (MACTAN-CEBU , PH) observed 1400 UTC 20 March 2019
Temperature: 27.0°C (81°F)
Dewpoint: 22.0°C (72°F) [RH = 74%]
Pressure (altimeter): 29.91 inches Hg (1013.0 mb)
Winds: from the ENE (60 degrees) at 10 MPH (9 knots; 4.6 m/s)
Visibility: 6 or more miles (10+ km)
Ceiling: at least 12,000 feet AGL
Clouds: few clouds at 2000 feet AGL
Weather: no significant weather observed at this time

METAR text: RPVM 201300Z 07009KT 9999 FEW020 SCT300 28/22 Q1013 RMK A2991
Conditions at: RPVM (MACTAN-CEBU , PH) observed 1300 UTC 20 March 2019
Temperature: 28.0°C (82°F)
Dewpoint: 22.0°C (72°F) [RH = 70%]
Pressure (altimeter): 29.91 inches Hg (1013.0 mb)
Winds: from the ENE (70 degrees) at 10 MPH (9 knots; 4.6 m/s)
Visibility: 6 or more miles (10+ km)
Ceiling: at least 12,000 feet AGL
Clouds: few clouds at 2000 feet AGL
scattered clouds at 30000 feet AGL
Weather: no significant weather observed at this time

METAR text: RPVM 201200Z 06010KT 9999 FEW020 SCT300 28/22 Q1012 RMK A2988
Conditions at: RPVM (MACTAN-CEBU , PH) observed 1200 UTC 20 March 2019
Temperature: 28.0°C (82°F)
Dewpoint: 22.0°C (72°F) [RH = 70%]
Pressure (altimeter): 29.88 inches Hg (1012.0 mb)
Winds: from the ENE (60 degrees) at 12 MPH (10 knots; 5.1 m/s)
Visibility: 6 or more miles (10+ km)
Ceiling: at least 12,000 feet AGL
Clouds: few clouds at 2000 feet AGL
scattered clouds at 30000 feet AGL
Weather: no significant weather observed at this time

METAR text: RPVM 201100Z 06010KT 9999 FEW020 BKN300 28/22 Q1012 RMK A2988
Conditions at: RPVM (MACTAN-CEBU , PH) observed 1100 UTC 20 March 2019
Temperature: 28.0°C (82°F)
Dewpoint: 22.0°C (72°F) [RH = 70%]
Pressure (altimeter): 29.88 inches Hg (1012.0 mb)
Winds: from the ENE (60 degrees) at 12 MPH (10 knots; 5.1 m/s)
Visibility: 6 or more miles (10+ km)
Ceiling: 30000 feet AGL
Clouds: few clouds at 2000 feet AGL
broken clouds at 30000 feet AGL
Weather: no significant weather observed at this time

METAR text: RPVM 201000Z 06011KT 9999 FEW020 BKN300 29/22 Q1011 RMK A2985
Conditions at: RPVM (MACTAN-CEBU , PH) observed 1000 UTC 20 March 2019
Temperature: 29.0°C (84°F)
Dewpoint: 22.0°C (72°F) [RH = 66%]
Pressure (altimeter): 29.85 inches Hg (1011.0 mb)
Winds: from the ENE (60 degrees) at 13 MPH (11 knots; 5.7 m/s)
Visibility: 6 or more miles (10+ km)
Ceiling: 30000 feet AGL
Clouds: few clouds at 2000 feet AGL
broken clouds at 30000 feet AGL
Weather: no significant weather observed at this time

METAR text: RPVM 200900Z 06013KT 9999 FEW020 BKN300 29/22 Q1010 RMK A2983
Conditions at: RPVM (MACTAN-CEBU , PH) observed 0900 UTC 20 March 2019
Temperature: 29.0°C (84°F)
Dewpoint: 22.0°C (72°F) [RH = 66%]
Pressure (altimeter): 29.82 inches Hg (1010.0 mb)
Winds: from the ENE (60 degrees) at 15 MPH (13 knots; 6.7 m/s)
Visibility: 6 or more miles (10+ km)
Ceiling: 30000 feet AGL
Clouds: few clouds at 2000 feet AGL
broken clouds at 30000 feet AGL
Weather: no significant weather observed at this time

METAR text: RPVM 200800Z 04014KT 9999 FEW020 BKN300 30/22 Q1010 RMK A2983
Conditions at: RPVM (MACTAN-CEBU , PH) observed 0800 UTC 20 March 2019
Temperature: 30.0°C (86°F)
Dewpoint: 22.0°C (72°F) [RH = 62%]
Pressure (altimeter): 29.82 inches Hg (1010.0 mb)
Winds: from the NE (40 degrees) at 16 MPH (14 knots; 7.2 m/s)
Visibility: 6 or more miles (10+ km)
Ceiling: 30000 feet AGL
Clouds: few clouds at 2000 feet AGL
broken clouds at 30000 feet AGL
Weather: no significant weather observed at this time

METAR text: RPVM 200700Z 04012KT 020V080 9999 FEW020 BKN300 31/22 Q1010 RMK A2983
Conditions at: RPVM (MACTAN-CEBU , PH) observed 0700 UTC 20 March 2019
Temperature: 31.0°C (88°F)
Dewpoint: 22.0°C (72°F) [RH = 59%]
Pressure (altimeter): 29.82 inches Hg (1010.0 mb)
Winds: from the NE (40 degrees) at 14 MPH (12 knots; 6.2 m/s)
Visibility: 6 or more miles (10+ km)
Ceiling: 30000 feet AGL
Clouds: few clouds at 2000 feet AGL
broken clouds at 30000 feet AGL
Weather: no significant weather observed at this time

METAR text: RPVM 200600Z 04011KT 9999 FEW020 SCT100 31/22 Q1011 NOSIG RMK A2985
Conditions at: RPVM (MACTAN-CEBU , PH) observed 0600 UTC 20 March 2019
Temperature: 31.0°C (88°F)
Dewpoint: 22.0°C (72°F) [RH = 59%]
Pressure (altimeter): 29.85 inches Hg (1011.0 mb)
Winds: from the NE (40 degrees) at 13 MPH (11 knots; 5.7 m/s)
Visibility: 6 or more miles (10+ km)
Ceiling: at least 12,000 feet AGL
Clouds: few clouds at 2000 feet AGL
scattered clouds at 10000 feet AGL
Weather: no significant weather observed at this time

METAR text: RPVM 200500Z 05010KT 9999 FEW020 SCT300 31/22 Q1012 NOSIG RMK A2988
Conditions at: RPVM (MACTAN-CEBU , PH) observed 0500 UTC 20 March 2019
Temperature: 31.0°C (88°F)
Dewpoint: 22.0°C (72°F) [RH = 59%]
Pressure (altimeter): 29.88 inches Hg (1012.0 mb)
Winds: from the NE (50 degrees) at 12 MPH (10 knots; 5.1 m/s)
Visibility: 6 or more miles (10+ km)
Ceiling: at least 12,000 feet AGL
Clouds: few clouds at 2000 feet AGL
scattered clouds at 30000 feet AGL
Weather: no significant weather observed at this time

METAR text: RPVM 200400Z 05011KT 9999 FEW020 SCT100 31/22 Q1013 NOSIG RMK A2991
Conditions at: RPVM (MACTAN-CEBU , PH) observed 0400 UTC 20 March 2019
Temperature: 31.0°C (88°F)
Dewpoint: 22.0°C (72°F) [RH = 59%]
Pressure (altimeter): 29.91 inches Hg (1013.0 mb)
Winds: from the NE (50 degrees) at 13 MPH (11 knots; 5.7 m/s)
Visibility: 6 or more miles (10+ km)
Ceiling: at least 12,000 feet AGL
Clouds: few clouds at 2000 feet AGL
scattered clouds at 10000 feet AGL
Weather: no significant weather observed at this time

METAR text: RPVM 200300Z 04010KT 9999 FEW020 BKN100 31/22 Q1013 NOSIG RMK A2991
Conditions at: RPVM (MACTAN-CEBU , PH) observed 0300 UTC 20 March 2019
Temperature: 31.0°C (88°F)
Dewpoint: 22.0°C (72°F) [RH = 59%]
Pressure (altimeter): 29.91 inches Hg (1013.0 mb)
Winds: from the NE (40 degrees) at 12 MPH (10 knots; 5.1 m/s)
Visibility: 6 or more miles (10+ km)
Ceiling: 10000 feet AGL
Clouds: few clouds at 2000 feet AGL
broken clouds at 10000 feet AGL
Weather: no significant weather observed at this time

METAR text: RPVM 200200Z 03012KT 9999 FEW020 BKN300 30/22 Q1014 NOSIG RMK A2994
Conditions at: RPVM (MACTAN-CEBU , PH) observed 0200 UTC 20 March 2019
Temperature: 30.0°C (86°F)
Dewpoint: 22.0°C (72°F) [RH = 62%]
Pressure (altimeter): 29.94 inches Hg (1014.0 mb)
Winds: from the NNE (30 degrees) at 14 MPH (12 knots; 6.2 m/s)
Visibility: 6 or more miles (10+ km)
Ceiling: 30000 feet AGL
Clouds: few clouds at 2000 feet AGL
broken clouds at 30000 feet AGL
Weather: no significant weather observed at this time

METAR text: RPVM 200100Z 02011KT 9999 FEW020 SCT300 29/22 Q1013 NOSIG RMK A2991
Conditions at: RPVM (MACTAN-CEBU , PH) observed 0100 UTC 20 March 2019
Temperature: 29.0°C (84°F)
Dewpoint: 22.0°C (72°F) [RH = 66%]
Pressure (altimeter): 29.91 inches Hg (1013.0 mb)
Winds: from the NNE (20 degrees) at 13 MPH (11 knots; 5.7 m/s)
Visibility: 6 or more miles (10+ km)
Ceiling: at least 12,000 feet AGL
Clouds: few clouds at 2000 feet AGL
scattered clouds at 30000 feet AGL
Weather: no significant weather observed at this time

METAR text: RPVM 200000Z 02010KT 9999 FEW020 BKN090 27/22 Q1013 NOSIG RMK A2991
Conditions at: RPVM (MACTAN-CEBU , PH) observed 0000 UTC 20 March 2019
Temperature: 27.0°C (81°F)
Dewpoint: 22.0°C (72°F) [RH = 74%]
Pressure (altimeter): 29.91 inches Hg (1013.0 mb)
Winds: from the NNE (20 degrees) at 12 MPH (10 knots; 5.1 m/s)
Visibility: 6 or more miles (10+ km)
Ceiling: 9000 feet AGL
Clouds: few clouds at 2000 feet AGL
broken clouds at 9000 feet AGL
Weather: no significant weather observed at this time

METAR text: RPVM 192300Z 36007KT 9999 FEW020 SCT300 26/22 Q1012 NOSIG RMK A2988
Conditions at: RPVM (MACTAN-CEBU , PH) observed 2300 UTC 19 March 2019
Temperature: 26.0°C (79°F)
Dewpoint: 22.0°C (72°F) [RH = 79%]
Pressure (altimeter): 29.88 inches Hg (1012.0 mb)
Winds: from the N (360 degrees) at 8 MPH (7 knots; 3.6 m/s)
Visibility: 6 or more miles (10+ km)
Ceiling: at least 12,000 feet AGL
Clouds: few clouds at 2000 feet AGL
scattered clouds at 30000 feet AGL
Weather: no significant weather observed at this time

METAR text: RPVM 192200Z 36005KT 9999 FEW020 OVC250 24/22 Q1012 NOSIG RMK A2988
Conditions at: RPVM (MACTAN-CEBU , PH) observed 2200 UTC 19 March 2019
Temperature: 24.0°C (75°F)
Dewpoint: 22.0°C (72°F) [RH = 89%]
Pressure (altimeter): 29.88 inches Hg (1012.0 mb)
Winds: from the N (360 degrees) at 6 MPH (5 knots; 2.6 m/s)
Visibility: 6 or more miles (10+ km)
Ceiling: 25000 feet AGL
Clouds: few clouds at 2000 feet AGL
overcast cloud deck at 25000 feet AGL
Weather: no significant weather observed at this time

METAR text: RPVM 192100Z 36005KT 9999 FEW020 OVC250 24/22 Q1011 NOSIG RMK A2985
Conditions at: RPVM (MACTAN-CEBU , PH) observed 2100 UTC 19 March 2019
Temperature: 24.0°C (75°F)
Dewpoint: 22.0°C (72°F) [RH = 89%]
Pressure (altimeter): 29.85 inches Hg (1011.0 mb)
Winds: from the N (360 degrees) at 6 MPH (5 knots; 2.6 m/s)
Visibility: 6 or more miles (10+ km)
Ceiling: 25000 feet AGL
Clouds: few clouds at 2000 feet AGL
overcast cloud deck at 25000 feet AGL
Weather: no significant weather observed at this time

METAR text: RPVM 192000Z 36005KT 9999 FEW020 OVC250 25/22 Q1011 NOSIG RMK A2985
Conditions at: RPVM (MACTAN-CEBU , PH) observed 2000 UTC 19 March 2019
Temperature: 25.0°C (77°F)
Dewpoint: 22.0°C (72°F) [RH = 83%]
Pressure (altimeter): 29.85 inches Hg (1011.0 mb)
Winds: from the N (360 degrees) at 6 MPH (5 knots; 2.6 m/s)
Visibility: 6 or more miles (10+ km)
Ceiling: 25000 feet AGL
Clouds: few clouds at 2000 feet AGL
overcast cloud deck at 25000 feet AGL
Weather: no significant weather observed at this time

METAR text: RPVM 191900Z 02005KT 9999 FEW020 OVC250 25/22 Q1012 NOSIG RMK A2988
Conditions at: RPVM (MACTAN-CEBU , PH) observed 1900 UTC 19 March 2019
Temperature: 25.0°C (77°F)
Dewpoint: 22.0°C (72°F) [RH = 83%]
Pressure (altimeter): 29.88 inches Hg (1012.0 mb)
Winds: from the NNE (20 degrees) at 6 MPH (5 knots; 2.6 m/s)
Visibility: 6 or more miles (10+ km)
Ceiling: 25000 feet AGL
Clouds: few clouds at 2000 feet AGL
overcast cloud deck at 25000 feet AGL
Weather: no significant weather observed at this time

METAR text: RPVM 191800Z 05008KT 9999 FEW020 26/23 Q1011 RMK A2985
Conditions at: RPVM (MACTAN-CEBU , PH) observed 1800 UTC 19 March 2019
Temperature: 26.0°C (79°F)
Dewpoint: 23.0°C (73°F) [RH = 84%]
Pressure (altimeter): 29.85 inches Hg (1011.0 mb)
Winds: from the NE (50 degrees) at 9 MPH (8 knots; 4.1 m/s)
Visibility: 6 or more miles (10+ km)
Ceiling: at least 12,000 feet AGL
Clouds: few clouds at 2000 feet AGL
Weather: no significant weather observed at this time

METAR text: RPVM 191700Z 03005KT 360V060 9999 FEW020 25/23 Q1012 RMK A2988
Conditions at: RPVM (MACTAN-CEBU , PH) observed 1700 UTC 19 March 2019
Temperature: 25.0°C (77°F)
Dewpoint: 23.0°C (73°F) [RH = 89%]
Pressure (altimeter): 29.88 inches Hg (1012.0 mb)
Winds: from the NNE (30 degrees) at 6 MPH (5 knots; 2.6 m/s)
Visibility: 6 or more miles (10+ km)
Ceiling: at least 12,000 feet AGL
Clouds: few clouds at 2000 feet AGL
Weather: no significant weather observed at this time

METAR text: RPVM 191600Z 01007KT 9999 FEW020 26/23 Q1012 RMK A2988
Conditions at: RPVM (MACTAN-CEBU , PH) observed 1600 UTC 19 March 2019
Temperature: 26.0°C (79°F)
Dewpoint: 23.0°C (73°F) [RH = 84%]
Pressure (altimeter): 29.88 inches Hg (1012.0 mb)
Winds: from the N (10 degrees) at 8 MPH (7 knots; 3.6 m/s)
Visibility: 6 or more miles (10+ km)
Ceiling: at least 12,000 feet AGL
Clouds: few clouds at 2000 feet AGL
Weather: no significant weather observed at this time

METAR text: RPVM 191500Z 04009KT 9999 FEW020 26/23 Q1013 RMK A2991
Conditions at: RPVM (MACTAN-CEBU , PH) observed 1500 UTC 19 March 2019
Temperature: 26.0°C (79°F)
Dewpoint: 23.0°C (73°F) [RH = 84%]
Pressure (altimeter): 29.91 inches Hg (1013.0 mb)
Winds: from the NE (40 degrees) at 10 MPH (9 knots; 4.6 m/s)
Visibility: 6 or more miles (10+ km)
Ceiling: at least 12,000 feet AGL
Clouds: few clouds at 2000 feet AGL
Weather: no significant weather observed at this time

METAR text: RPVM 191400Z 03008KT 9999 FEW020 SCT100 27/23 Q1013 RMK A2991
Conditions at: RPVM (MACTAN-CEBU , PH) observed 1400 UTC 19 March 2019
Temperature: 27.0°C (81°F)
Dewpoint: 23.0°C (73°F) [RH = 79%]
Pressure (altimeter): 29.91 inches Hg (1013.0 mb)
Winds: from the NNE (30 degrees) at 9 MPH (8 knots; 4.1 m/s)
Visibility: 6 or more miles (10+ km)
Ceiling: at least 12,000 feet AGL
Clouds: few clouds at 2000 feet AGL
scattered clouds at 10000 feet AGL
Weather: no significant weather observed at this time

METAR text: RPVM 191300Z 03008KT 9999 FEW020 BKN100 27/22 Q1013 RMK A2991
Conditions at: RPVM (MACTAN-CEBU , PH) observed 1300 UTC 19 March 2019
Temperature: 27.0°C (81°F)
Dewpoint: 22.0°C (72°F) [RH = 74%]
Pressure (altimeter): 29.91 inches Hg (1013.0 mb)
Winds: from the NNE (30 degrees) at 9 MPH (8 knots; 4.1 m/s)
Visibility: 6 or more miles (10+ km)
Ceiling: 10000 feet AGL
Clouds: few clouds at 2000 feet AGL
broken clouds at 10000 feet AGL
Weather: no significant weather observed at this time

METAR text: RPVM 191200Z 01006KT 340V040 9999 FEW020 BKN100 27/23 Q1012 RMK A2988
Conditions at: RPVM (MACTAN-CEBU , PH) observed 1200 UTC 19 March 2019
Temperature: 27.0°C (81°F)
Dewpoint: 23.0°C (73°F) [RH = 79%]
Pressure (altimeter): 29.88 inches Hg (1012.0 mb)
Winds: from the N (10 degrees) at 7 MPH (6 knots; 3.1 m/s)
Visibility: 6 or more miles (10+ km)
Ceiling: 10000 feet AGL
Clouds: few clouds at 2000 feet AGL
broken clouds at 10000 feet AGL
Weather: no significant weather observed at this time

METAR text: RPVM 191100Z 02008KT 9999 FEW020 BKN100 27/23 Q1011 RMK A2985
Conditions at: RPVM (MACTAN-CEBU , PH) observed 1100 UTC 19 March 2019
Temperature: 27.0°C (81°F)
Dewpoint: 23.0°C (73°F) [RH = 79%]
Pressure (altimeter): 29.85 inches Hg (1011.0 mb)
Winds: from the NNE (20 degrees) at 9 MPH (8 knots; 4.1 m/s)
Visibility: 6 or more miles (10+ km)
Ceiling: 10000 feet AGL
Clouds: few clouds at 2000 feet AGL
broken clouds at 10000 feet AGL
Weather: no significant weather observed at this time

METAR text: RPVM 191000Z 04008KT 9999 FEW020 BKN100 27/22 Q1011 RMK A2985
Conditions at: RPVM (MACTAN-CEBU , PH) observed 1000 UTC 19 March 2019
Temperature: 27.0°C (81°F)
Dewpoint: 22.0°C (72°F) [RH = 74%]
Pressure (altimeter): 29.85 inches Hg (1011.0 mb)
Winds: from the NE (40 degrees) at 9 MPH (8 knots; 4.1 m/s)
Visibility: 6 or more miles (10+ km)
Ceiling: 10000 feet AGL
Clouds: few clouds at 2000 feet AGL
broken clouds at 10000 feet AGL
Weather: no significant weather observed at this time

METAR text: RPVM 190900Z 03009KT 9999 FEW020 BKN100 28/23 Q1010 RMK A2983
Conditions at: RPVM (MACTAN-CEBU , PH) observed 0900 UTC 19 March 2019
Temperature: 28.0°C (82°F)
Dewpoint: 23.0°C (73°F) [RH = 74%]
Pressure (altimeter): 29.82 inches Hg (1010.0 mb)
Winds: from the NNE (30 degrees) at 10 MPH (9 knots; 4.6 m/s)
Visibility: 6 or more miles (10+ km)
Ceiling: 10000 feet AGL
Clouds: few clouds at 2000 feet AGL
broken clouds at 10000 feet AGL
Weather: no significant weather observed at this time

METAR text: RPVM 190800Z 04011KT 9999 FEW020 OVC100 28/24 Q1010 RMK A2983
Conditions at: RPVM (MACTAN-CEBU , PH) observed 0800 UTC 19 March 2019
Temperature: 28.0°C (82°F)
Dewpoint: 24.0°C (75°F) [RH = 79%]
Pressure (altimeter): 29.82 inches Hg (1010.0 mb)
Winds: from the NE (40 degrees) at 13 MPH (11 knots; 5.7 m/s)
Visibility: 6 or more miles (10+ km)
Ceiling: 10000 feet AGL
Clouds: few clouds at 2000 feet AGL
overcast cloud deck at 10000 feet AGL
Weather: no significant weather observed at this time

METAR text: RPVM 190700Z 03013KT 9999 FEW020 OVC100 28/23 Q1010 RMK A2983
Conditions at: RPVM (MACTAN-CEBU , PH) observed 0700 UTC 19 March 2019
Temperature: 28.0°C (82°F)
Dewpoint: 23.0°C (73°F) [RH = 74%]
Pressure (altimeter): 29.82 inches Hg (1010.0 mb)
Winds: from the NNE (30 degrees) at 15 MPH (13 knots; 6.7 m/s)
Visibility: 6 or more miles (10+ km)
Ceiling: 10000 feet AGL
Clouds: few clouds at 2000 feet AGL
overcast cloud deck at 10000 feet AGL
Weather: no significant weather observed at this time

METAR text: RPVM 190600Z 04012KT 9999 SCT020 OVC090 28/23 Q1011 RMK A2985
Conditions at: RPVM (MACTAN-CEBU , PH) observed 0600 UTC 19 March 2019
Temperature: 28.0°C (82°F)
Dewpoint: 23.0°C (73°F) [RH = 74%]
Pressure (altimeter): 29.85 inches Hg (1011.0 mb)
Winds: from the NE (40 degrees) at 14 MPH (12 knots; 6.2 m/s)
Visibility: 6 or more miles (10+ km)
Ceiling: 9000 feet AGL
Clouds: scattered clouds at 2000 feet AGL
overcast cloud deck at 9000 feet AGL
Weather: no significant weather observed at this time

METAR text: RPVM 190500Z 04012KT 9999 SCT020 OVC090 29/23 Q1012 RMK A2988
Conditions at: RPVM (MACTAN-CEBU , PH) observed 0500 UTC 19 March 2019
Temperature: 29.0°C (84°F)
Dewpoint: 23.0°C (73°F) [RH = 70%]
Pressure (altimeter): 29.88 inches Hg (1012.0 mb)
Winds: from the NE (40 degrees) at 14 MPH (12 knots; 6.2 m/s)
Visibility: 6 or more miles (10+ km)
Ceiling: 9000 feet AGL
Clouds: scattered clouds at 2000 feet AGL
overcast cloud deck at 9000 feet AGL
Weather: no significant weather observed at this time

METAR text: RPVM 190400Z 03011KT 9999 SCT020 OVC090 28/22 Q1013 RMK A2991
Conditions at: RPVM (MACTAN-CEBU , PH) observed 0400 UTC 19 March 2019
Temperature: 28.0°C (82°F)
Dewpoint: 22.0°C (72°F) [RH = 70%]
Pressure (altimeter): 29.91 inches Hg (1013.0 mb)
Winds: from the NNE (30 degrees) at 13 MPH (11 knots; 5.7 m/s)
Visibility: 6 or more miles (10+ km)
Ceiling: 9000 feet AGL
Clouds: scattered clouds at 2000 feet AGL
overcast cloud deck at 9000 feet AGL
Weather: no significant weather observed at this time

Forecast for: RPVM (MACTAN-CEBU , PH)
Text: TAF RPVM 201100Z 2012/2118 06008KT 9999 FEW020
Forecast period: 1200 UTC 20 March 2019 to 1800 UTC 21 March 2019
Forecast type: FROM: standard forecast or significant change
Winds: from the ENE (60 degrees) at 9 MPH (8 knots; 4.1 m/s)
Visibility: 6 or more miles 10+ km)
Ceiling: at least 12,000 feet AGL
Clouds: few clouds at 2000 feet AGL
Weather: no significant weather forecast for this period
Text: TEMPO 2012/2018 05012KT FEW020 SCT300
Forecast period: 1200 to 1800 UTC 20 March 2019
Forecast type: TEMPORARY: The following changes expected for less than half the time period
Winds: from the NE (50 degrees) at 14 MPH (12 knots; 6.2 m/s)
Visibility: missing
Ceiling: at least 12,000 feet AGL
Clouds: few clouds at 2000 feet AGL
scattered clouds at 30000 feet AGL
Weather: no significant weather forecast for this period
Text: TEMPO 2018/2024 04010KT
Forecast period: 1800 UTC 20 March 2019 to 0000 UTC 21 March 2019
Forecast type: TEMPORARY: The following changes expected for less than half the time period
Winds: from the NE (40 degrees) at 12 MPH (10 knots; 5.1 m/s)
Visibility: missing
Ceiling: unknown
Clouds: missing
Weather: no significant weather forecast for this period